sensor_id;sensor_type;location;lat;lon;timestamp;P1;durP1;ratioP1;P2;durP2;ratioP2
65896;SDS011;52677;50.898;10.854;2022-11-23T00:00:32;3.78;;;2.65;;
65896;SDS011;52677;50.898;10.854;2022-11-23T00:02:32;5.13;;;2.58;;
65896;SDS011;52677;50.898;10.854;2022-11-23T00:04:33;5.93;;;2.22;;
65896;SDS011;52677;50.898;10.854;2022-11-23T00:06:33;5.45;;;2.33;;
65896;SDS011;52677;50.898;10.854;2022-11-23T00:08:34;2.97;;;2.20;;
65896;SDS011;52677;50.898;10.854;2022-11-23T00:10:34;2.90;;;2.58;;
65896;SDS011;52677;50.898;10.854;2022-11-23T00:12:35;3.47;;;2.25;;
65896;SDS011;52677;50.898;10.854;2022-11-23T00:14:35;3.28;;;1.95;;
65896;SDS011;52677;50.898;10.854;2022-11-23T00:16:35;3.25;;;2.72;;
65896;SDS011;52677;50.898;10.854;2022-11-23T00:18:36;2.88;;;2.30;;
65896;SDS011;52677;50.898;10.854;2022-11-23T00:20:37;3.38;;;2.10;;
65896;SDS011;52677;50.898;10.854;2022-11-23T00:22:38;3.60;;;2.20;;
65896;SDS011;52677;50.898;10.854;2022-11-23T00:24:38;3.58;;;2.47;;
65896;SDS011;52677;50.898;10.854;2022-11-23T00:26:39;2.20;;;1.90;;
65896;SDS011;52677;50.898;10.854;2022-11-23T00:28:39;3.15;;;2.10;;
65896;SDS011;52677;50.898;10.854;2022-11-23T00:30:41;2.85;;;2.30;;
65896;SDS011;52677;50.898;10.854;2022-11-23T00:32:41;4.85;;;2.20;;
65896;SDS011;52677;50.898;10.854;2022-11-23T00:34:42;4.18;;;2.40;;
65896;SDS011;52677;50.898;10.854;2022-11-23T00:36:42;4.40;;;2.50;;
65896;SDS011;52677;50.898;10.854;2022-11-23T00:38:43;5.28;;;2.22;;
65896;SDS011;52677;50.898;10.854;2022-11-23T00:40:44;3.33;;;2.33;;
65896;SDS011;52677;50.898;10.854;2022-11-23T00:42:44;4.47;;;1.92;;
65896;SDS011;52677;50.898;10.854;2022-11-23T00:44:44;6.28;;;2.35;;
65896;SDS011;52677;50.898;10.854;2022-11-23T00:46:45;2.42;;;1.90;;
65896;SDS011;52677;50.898;10.854;2022-11-23T00:48:46;4.43;;;2.05;;
65896;SDS011;52677;50.898;10.854;2022-11-23T00:52:48;3.95;;;2.53;;
65896;SDS011;52677;50.898;10.854;2022-11-23T00:54:48;4.00;;;2.30;;
65896;SDS011;52677;50.898;10.854;2022-11-23T00:56:48;5.30;;;2.50;;
65896;SDS011;52677;50.898;10.854;2022-11-23T00:58:49;6.70;;;2.30;;
65896;SDS011;52677;50.898;10.854;2022-11-23T01:00:58;2.80;;;2.30;;
65896;SDS011;52677;50.898;10.854;2022-11-23T01:03:19;3.10;;;2.13;;
65896;SDS011;52677;50.898;10.854;2022-11-23T01:05:19;4.50;;;2.42;;
65896;SDS011;52677;50.898;10.854;2022-11-23T01:07:20;5.20;;;2.30;;
65896;SDS011;52677;50.898;10.854;2022-11-23T01:09:20;3.85;;;2.50;;
65896;SDS011;52677;50.898;10.854;2022-11-23T01:11:24;4.85;;;2.35;;
65896;SDS011;52677;50.898;10.854;2022-11-23T01:13:26;4.85;;;2.47;;
65896;SDS011;52677;50.898;10.854;2022-11-23T01:15:27;4.30;;;2.50;;
65896;SDS011;52677;50.898;10.854;2022-11-23T01:17:27;2.65;;;2.08;;
65896;SDS011;52677;50.898;10.854;2022-11-23T01:19:27;5.25;;;2.50;;
65896;SDS011;52677;50.898;10.854;2022-11-23T01:21:30;5.00;;;2.20;;
65896;SDS011;52677;50.898;10.854;2022-11-23T01:23:31;4.90;;;2.22;;
65896;SDS011;52677;50.898;10.854;2022-11-23T01:25:31;5.20;;;2.67;;
65896;SDS011;52677;50.898;10.854;2022-11-23T01:27:32;3.80;;;2.35;;
65896;SDS011;52677;50.898;10.854;2022-11-23T01:29:32;5.22;;;2.10;;
65896;SDS011;52677;50.898;10.854;2022-11-23T01:31:32;5.97;;;2.80;;
65896;SDS011;52677;50.898;10.854;2022-11-23T01:33:33;5.28;;;2.35;;
65896;SDS011;52677;50.898;10.854;2022-11-23T01:35:34;3.92;;;2.53;;
65896;SDS011;52677;50.898;10.854;2022-11-23T01:37:34;4.90;;;2.60;;
65896;SDS011;52677;50.898;10.854;2022-11-23T01:39:34;3.80;;;2.08;;
65896;SDS011;52677;50.898;10.854;2022-11-23T01:41:36;3.63;;;2.45;;
65896;SDS011;52677;50.898;10.854;2022-11-23T01:43:38;2.85;;;2.30;;
65896;SDS011;52677;50.898;10.854;2022-11-23T01:47:51;5.47;;;2.72;;
65896;SDS011;52677;50.898;10.854;2022-11-23T01:49:52;2.60;;;2.10;;
65896;SDS011;52677;50.898;10.854;2022-11-23T01:51:53;4.82;;;2.22;;
65896;SDS011;52677;50.898;10.854;2022-11-23T01:53:58;4.72;;;2.47;;
65896;SDS011;52677;50.898;10.854;2022-11-23T01:56:01;3.95;;;2.65;;
65896;SDS011;52677;50.898;10.854;2022-11-23T01:58:03;3.40;;;2.38;;
65896;SDS011;52677;50.898;10.854;2022-11-23T02:00:08;2.67;;;2.10;;
65896;SDS011;52677;50.898;10.854;2022-11-23T02:02:09;5.63;;;2.47;;
65896;SDS011;52677;50.898;10.854;2022-11-23T02:04:12;4.50;;;2.20;;
65896;SDS011;52677;50.898;10.854;2022-11-23T02:06:17;3.28;;;2.10;;
65896;SDS011;52677;50.898;10.854;2022-11-23T02:08:19;5.57;;;2.05;;
65896;SDS011;52677;50.898;10.854;2022-11-23T02:10:20;2.35;;;1.83;;
65896;SDS011;52677;50.898;10.854;2022-11-23T02:12:22;5.75;;;2.40;;
65896;SDS011;52677;50.898;10.854;2022-11-23T02:14:22;4.00;;;2.42;;
65896;SDS011;52677;50.898;10.854;2022-11-23T02:16:22;3.80;;;2.00;;
65896;SDS011;52677;50.898;10.854;2022-11-23T02:18:26;6.32;;;2.33;;
65896;SDS011;52677;50.898;10.854;2022-11-23T02:20:29;4.50;;;2.35;;
65896;SDS011;52677;50.898;10.854;2022-11-23T02:27:29;6.40;;;2.53;;
65896;SDS011;52677;50.898;10.854;2022-11-23T02:29:30;2.67;;;2.08;;
65896;SDS011;52677;50.898;10.854;2022-11-23T02:31:32;3.92;;;2.35;;
65896;SDS011;52677;50.898;10.854;2022-11-23T02:33:32;3.15;;;2.40;;
65896;SDS011;52677;50.898;10.854;2022-11-23T02:35:33;4.15;;;2.22;;
65896;SDS011;52677;50.898;10.854;2022-11-23T02:37:34;4.47;;;2.25;;
65896;SDS011;52677;50.898;10.854;2022-11-23T02:39:35;2.90;;;1.85;;
65896;SDS011;52677;50.898;10.854;2022-11-23T02:41:45;2.80;;;2.08;;
65896;SDS011;52677;50.898;10.854;2022-11-23T02:43:47;4.55;;;2.10;;
65896;SDS011;52677;50.898;10.854;2022-11-23T02:46:00;4.07;;;1.95;;
65896;SDS011;52677;50.898;10.854;2022-11-23T02:48:03;3.33;;;2.13;;
65896;SDS011;52677;50.898;10.854;2022-11-23T02:50:04;4.70;;;2.03;;
65896;SDS011;52677;50.898;10.854;2022-11-23T02:52:05;3.58;;;1.90;;
65896;SDS011;52677;50.898;10.854;2022-11-23T02:54:05;5.05;;;2.45;;
65896;SDS011;52677;50.898;10.854;2022-11-23T02:56:06;3.42;;;1.90;;
65896;SDS011;52677;50.898;10.854;2022-11-23T02:58:06;3.22;;;2.00;;
65896;SDS011;52677;50.898;10.854;2022-11-23T03:00:07;3.72;;;2.38;;
65896;SDS011;52677;50.898;10.854;2022-11-23T03:02:08;3.42;;;2.20;;
65896;SDS011;52677;50.898;10.854;2022-11-23T03:04:08;3.72;;;1.92;;
65896;SDS011;52677;50.898;10.854;2022-11-23T03:06:09;4.40;;;2.30;;
65896;SDS011;52677;50.898;10.854;2022-11-23T03:08:09;5.45;;;2.30;;
65896;SDS011;52677;50.898;10.854;2022-11-23T03:10:10;3.60;;;1.88;;
65896;SDS011;52677;50.898;10.854;2022-11-23T03:12:10;2.03;;;1.83;;
65896;SDS011;52677;50.898;10.854;2022-11-23T03:14:10;3.15;;;2.15;;
65896;SDS011;52677;50.898;10.854;2022-11-23T03:16:11;4.80;;;2.80;;
65896;SDS011;52677;50.898;10.854;2022-11-23T03:18:11;3.30;;;2.13;;
65896;SDS011;52677;50.898;10.854;2022-11-23T03:20:11;5.72;;;2.78;;
65896;SDS011;52677;50.898;10.854;2022-11-23T03:22:12;6.15;;;2.33;;
65896;SDS011;52677;50.898;10.854;2022-11-23T03:24:12;3.78;;;2.13;;
65896;SDS011;52677;50.898;10.854;2022-11-23T03:26:12;3.70;;;2.33;;
65896;SDS011;52677;50.898;10.854;2022-11-23T03:28:13;2.42;;;2.08;;
65896;SDS011;52677;50.898;10.854;2022-11-23T03:30:13;2.33;;;2.13;;
65896;SDS011;52677;50.898;10.854;2022-11-23T03:32:14;5.95;;;2.25;;
65896;SDS011;52677;50.898;10.854;2022-11-23T03:34:14;4.78;;;2.65;;
65896;SDS011;52677;50.898;10.854;2022-11-23T03:36:15;3.78;;;2.60;;
65896;SDS011;52677;50.898;10.854;2022-11-23T03:38:15;5.00;;;2.50;;
65896;SDS011;52677;50.898;10.854;2022-11-23T03:40:16;3.15;;;2.50;;
65896;SDS011;52677;50.898;10.854;2022-11-23T03:42:16;4.72;;;2.58;;
65896;SDS011;52677;50.898;10.854;2022-11-23T03:44:17;4.60;;;2.22;;
65896;SDS011;52677;50.898;10.854;2022-11-23T03:46:17;3.40;;;2.53;;
65896;SDS011;52677;50.898;10.854;2022-11-23T03:48:18;5.60;;;1.95;;
65896;SDS011;52677;50.898;10.854;2022-11-23T03:50:18;3.60;;;2.10;;
65896;SDS011;52677;50.898;10.854;2022-11-23T03:52:18;3.85;;;2.45;;
65896;SDS011;52677;50.898;10.854;2022-11-23T03:54:19;5.22;;;2.75;;
65896;SDS011;52677;50.898;10.854;2022-11-23T03:56:19;4.75;;;2.40;;
65896;SDS011;52677;50.898;10.854;2022-11-23T03:58:19;4.60;;;2.50;;
65896;SDS011;52677;50.898;10.854;2022-11-23T04:00:20;3.78;;;2.35;;
65896;SDS011;52677;50.898;10.854;2022-11-23T04:02:20;4.57;;;2.42;;
65896;SDS011;52677;50.898;10.854;2022-11-23T04:04:21;4.32;;;2.38;;
65896;SDS011;52677;50.898;10.854;2022-11-23T04:06:21;3.85;;;2.35;;
65896;SDS011;52677;50.898;10.854;2022-11-23T04:08:22;4.38;;;2.20;;
65896;SDS011;52677;50.898;10.854;2022-11-23T04:10:22;3.55;;;2.30;;
65896;SDS011;52677;50.898;10.854;2022-11-23T04:12:22;2.85;;;2.30;;
65896;SDS011;52677;50.898;10.854;2022-11-23T04:14:24;4.77;;;2.97;;
65896;SDS011;52677;50.898;10.854;2022-11-23T04:16:24;3.08;;;2.28;;
65896;SDS011;52677;50.898;10.854;2022-11-23T04:18:25;3.72;;;2.38;;
65896;SDS011;52677;50.898;10.854;2022-11-23T04:20:25;4.47;;;2.78;;
65896;SDS011;52677;50.898;10.854;2022-11-23T04:22:26;4.60;;;2.47;;
65896;SDS011;52677;50.898;10.854;2022-11-23T04:24:27;5.15;;;2.60;;
65896;SDS011;52677;50.898;10.854;2022-11-23T04:26:27;7.05;;;2.38;;
65896;SDS011;52677;50.898;10.854;2022-11-23T04:28:27;4.03;;;2.35;;
65896;SDS011;52677;50.898;10.854;2022-11-23T04:30:28;3.33;;;3.00;;
65896;SDS011;52677;50.898;10.854;2022-11-23T04:32:28;2.63;;;2.20;;
65896;SDS011;52677;50.898;10.854;2022-11-23T04:34:28;3.67;;;2.47;;
65896;SDS011;52677;50.898;10.854;2022-11-23T04:36:29;3.78;;;2.22;;
65896;SDS011;52677;50.898;10.854;2022-11-23T04:38:29;3.67;;;2.30;;
65896;SDS011;52677;50.898;10.854;2022-11-23T04:40:29;5.10;;;2.40;;
65896;SDS011;52677;50.898;10.854;2022-11-23T04:42:30;2.95;;;2.05;;
65896;SDS011;52677;50.898;10.854;2022-11-23T04:44:31;2.38;;;2.10;;
65896;SDS011;52677;50.898;10.854;2022-11-23T04:46:31;3.47;;;2.20;;
65896;SDS011;52677;50.898;10.854;2022-11-23T04:48:31;5.10;;;2.35;;
65896;SDS011;52677;50.898;10.854;2022-11-23T04:50:32;3.88;;;2.15;;
65896;SDS011;52677;50.898;10.854;2022-11-23T04:52:33;4.03;;;3.38;;
65896;SDS011;52677;50.898;10.854;2022-11-23T04:54:33;4.40;;;2.13;;
65896;SDS011;52677;50.898;10.854;2022-11-23T04:56:33;2.78;;;2.30;;
65896;SDS011;52677;50.898;10.854;2022-11-23T04:58:34;4.45;;;2.30;;
65896;SDS011;52677;50.898;10.854;2022-11-23T05:00:35;5.28;;;2.08;;
65896;SDS011;52677;50.898;10.854;2022-11-23T05:02:35;5.30;;;2.10;;
65896;SDS011;52677;50.898;10.854;2022-11-23T05:04:36;4.90;;;2.30;;
65896;SDS011;52677;50.898;10.854;2022-11-23T05:06:36;5.95;;;3.42;;
65896;SDS011;52677;50.898;10.854;2022-11-23T05:08:36;6.70;;;3.17;;
65896;SDS011;52677;50.898;10.854;2022-11-23T05:10:37;5.25;;;2.50;;
65896;SDS011;52677;50.898;10.854;2022-11-23T05:12:37;6.57;;;2.88;;
65896;SDS011;52677;50.898;10.854;2022-11-23T05:14:37;3.63;;;2.20;;
65896;SDS011;52677;50.898;10.854;2022-11-23T05:16:38;6.70;;;2.20;;
65896;SDS011;52677;50.898;10.854;2022-11-23T05:18:39;5.90;;;2.40;;
65896;SDS011;52677;50.898;10.854;2022-11-23T05:20:39;5.03;;;2.45;;
65896;SDS011;52677;50.898;10.854;2022-11-23T05:22:40;7.07;;;2.35;;
65896;SDS011;52677;50.898;10.854;2022-11-23T05:24:40;5.13;;;2.33;;
65896;SDS011;52677;50.898;10.854;2022-11-23T05:26:40;3.67;;;2.47;;
65896;SDS011;52677;50.898;10.854;2022-11-23T05:28:41;4.78;;;2.63;;
65896;SDS011;52677;50.898;10.854;2022-11-23T05:30:41;7.55;;;2.80;;
65896;SDS011;52677;50.898;10.854;2022-11-23T05:32:41;4.80;;;3.05;;
65896;SDS011;52677;50.898;10.854;2022-11-23T05:34:42;5.93;;;3.13;;
65896;SDS011;52677;50.898;10.854;2022-11-23T05:36:42;9.30;;;6.32;;
65896;SDS011;52677;50.898;10.854;2022-11-23T05:38:42;8.27;;;5.80;;
65896;SDS011;52677;50.898;10.854;2022-11-23T05:40:43;13.23;;;6.90;;
65896;SDS011;52677;50.898;10.854;2022-11-23T05:42:45;6.93;;;5.30;;
65896;SDS011;52677;50.898;10.854;2022-11-23T05:44:45;8.30;;;4.72;;
65896;SDS011;52677;50.898;10.854;2022-11-23T05:46:46;6.07;;;4.07;;
65896;SDS011;52677;50.898;10.854;2022-11-23T05:48:46;6.50;;;3.70;;
65896;SDS011;52677;50.898;10.854;2022-11-23T05:50:48;6.22;;;3.85;;
65896;SDS011;52677;50.898;10.854;2022-11-23T05:52:50;6.13;;;3.40;;
65896;SDS011;52677;50.898;10.854;2022-11-23T05:54:50;5.97;;;3.28;;
65896;SDS011;52677;50.898;10.854;2022-11-23T05:56:50;8.27;;;3.30;;
65896;SDS011;52677;50.898;10.854;2022-11-23T05:58:53;5.80;;;3.22;;
65896;SDS011;52677;50.898;10.854;2022-11-23T06:00:58;4.30;;;2.47;;
65896;SDS011;52677;50.898;10.854;2022-11-23T06:02:59;5.60;;;3.10;;
65896;SDS011;52677;50.898;10.854;2022-11-23T06:05:00;4.20;;;2.65;;
65896;SDS011;52677;50.898;10.854;2022-11-23T06:07:00;4.43;;;2.97;;
65896;SDS011;52677;50.898;10.854;2022-11-23T06:09:01;6.60;;;2.85;;
65896;SDS011;52677;50.898;10.854;2022-11-23T06:11:01;4.03;;;3.05;;
65896;SDS011;52677;50.898;10.854;2022-11-23T06:13:02;3.15;;;2.47;;
65896;SDS011;52677;50.898;10.854;2022-11-23T06:15:04;6.55;;;2.47;;
65896;SDS011;52677;50.898;10.854;2022-11-23T06:17:04;3.67;;;2.15;;
65896;SDS011;52677;50.898;10.854;2022-11-23T06:19:05;4.28;;;2.42;;
65896;SDS011;52677;50.898;10.854;2022-11-23T06:21:05;3.53;;;2.35;;
65896;SDS011;52677;50.898;10.854;2022-11-23T06:23:05;4.25;;;2.22;;
65896;SDS011;52677;50.898;10.854;2022-11-23T06:25:06;4.68;;;2.75;;
65896;SDS011;52677;50.898;10.854;2022-11-23T06:27:06;3.00;;;2.22;;
65896;SDS011;52677;50.898;10.854;2022-11-23T06:29:07;4.45;;;2.40;;
65896;SDS011;52677;50.898;10.854;2022-11-23T06:31:08;5.20;;;2.20;;
65896;SDS011;52677;50.898;10.854;2022-11-23T06:33:09;3.03;;;2.33;;
65896;SDS011;52677;50.898;10.854;2022-11-23T06:35:09;3.25;;;2.30;;
65896;SDS011;52677;50.898;10.854;2022-11-23T06:37:10;3.85;;;2.35;;
65896;SDS011;52677;50.898;10.854;2022-11-23T06:39:10;4.30;;;2.05;;
65896;SDS011;52677;50.898;10.854;2022-11-23T06:41:11;4.07;;;2.10;;
65896;SDS011;52677;50.898;10.854;2022-11-23T06:43:11;3.70;;;2.20;;
65896;SDS011;52677;50.898;10.854;2022-11-23T06:45:11;3.63;;;2.17;;
65896;SDS011;52677;50.898;10.854;2022-11-23T06:47:12;6.85;;;2.50;;
65896;SDS011;52677;50.898;10.854;2022-11-23T06:49:12;5.50;;;2.60;;
65896;SDS011;52677;50.898;10.854;2022-11-23T06:51:13;3.17;;;2.20;;
65896;SDS011;52677;50.898;10.854;2022-11-23T06:53:14;4.43;;;2.40;;
65896;SDS011;52677;50.898;10.854;2022-11-23T06:55:14;3.80;;;2.35;;
65896;SDS011;52677;50.898;10.854;2022-11-23T06:57:15;3.53;;;2.05;;
65896;SDS011;52677;50.898;10.854;2022-11-23T06:59:15;5.43;;;2.30;;
65896;SDS011;52677;50.898;10.854;2022-11-23T07:01:16;5.10;;;2.58;;
65896;SDS011;52677;50.898;10.854;2022-11-23T07:03:20;3.80;;;2.10;;
65896;SDS011;52677;50.898;10.854;2022-11-23T07:05:22;5.30;;;2.53;;
65896;SDS011;52677;50.898;10.854;2022-11-23T07:07:23;4.50;;;2.20;;
65896;SDS011;52677;50.898;10.854;2022-11-23T07:09:23;6.60;;;2.30;;
65896;SDS011;52677;50.898;10.854;2022-11-23T07:11:24;7.22;;;2.58;;
65896;SDS011;52677;50.898;10.854;2022-11-23T07:13:24;3.03;;;2.30;;
65896;SDS011;52677;50.898;10.854;2022-11-23T07:15:24;4.93;;;2.13;;
65896;SDS011;52677;50.898;10.854;2022-11-23T07:17:25;3.53;;;2.13;;
65896;SDS011;52677;50.898;10.854;2022-11-23T07:19:25;4.82;;;2.58;;
65896;SDS011;52677;50.898;10.854;2022-11-23T07:21:25;4.78;;;2.67;;
65896;SDS011;52677;50.898;10.854;2022-11-23T07:23:26;4.40;;;2.47;;
65896;SDS011;52677;50.898;10.854;2022-11-23T07:25:30;5.32;;;2.70;;
65896;SDS011;52677;50.898;10.854;2022-11-23T07:27:32;5.63;;;2.60;;
65896;SDS011;52677;50.898;10.854;2022-11-23T07:29:32;4.88;;;2.70;;
65896;SDS011;52677;50.898;10.854;2022-11-23T07:31:32;3.83;;;2.13;;
65896;SDS011;52677;50.898;10.854;2022-11-23T07:33:33;3.63;;;2.30;;
65896;SDS011;52677;50.898;10.854;2022-11-23T07:35:33;5.45;;;2.22;;
65896;SDS011;52677;50.898;10.854;2022-11-23T07:37:35;9.80;;;3.15;;
65896;SDS011;52677;50.898;10.854;2022-11-23T07:39:35;4.00;;;3.00;;
65896;SDS011;52677;50.898;10.854;2022-11-23T07:41:36;4.05;;;3.22;;
65896;SDS011;52677;50.898;10.854;2022-11-23T07:43:36;4.88;;;2.85;;
65896;SDS011;52677;50.898;10.854;2022-11-23T07:45:36;6.50;;;3.50;;
65896;SDS011;52677;50.898;10.854;2022-11-23T07:47:37;5.45;;;2.92;;
65896;SDS011;52677;50.898;10.854;2022-11-23T07:49:38;7.72;;;3.47;;
65896;SDS011;52677;50.898;10.854;2022-11-23T07:51:38;6.18;;;2.95;;
65896;SDS011;52677;50.898;10.854;2022-11-23T07:53:39;7.03;;;2.67;;
65896;SDS011;52677;50.898;10.854;2022-11-23T07:55:39;10.32;;;2.60;;
65896;SDS011;52677;50.898;10.854;2022-11-23T07:57:39;4.70;;;2.45;;
65896;SDS011;52677;50.898;10.854;2022-11-23T07:59:40;7.10;;;2.35;;
65896;SDS011;52677;50.898;10.854;2022-11-23T08:01:40;4.30;;;2.40;;
65896;SDS011;52677;50.898;10.854;2022-11-23T08:03:40;4.00;;;2.17;;
65896;SDS011;52677;50.898;10.854;2022-11-23T08:05:41;4.55;;;2.58;;
65896;SDS011;52677;50.898;10.854;2022-11-23T08:07:41;7.25;;;2.95;;
65896;SDS011;52677;50.898;10.854;2022-11-23T08:09:42;6.88;;;3.20;;
65896;SDS011;52677;50.898;10.854;2022-11-23T08:11:42;5.97;;;3.22;;
65896;SDS011;52677;50.898;10.854;2022-11-23T08:13:43;4.13;;;2.72;;
65896;SDS011;52677;50.898;10.854;2022-11-23T08:15:43;7.75;;;4.07;;
65896;SDS011;52677;50.898;10.854;2022-11-23T08:17:44;6.63;;;3.90;;
65896;SDS011;52677;50.898;10.854;2022-11-23T08:19:44;6.25;;;5.00;;
65896;SDS011;52677;50.898;10.854;2022-11-23T08:21:44;6.60;;;4.45;;
65896;SDS011;52677;50.898;10.854;2022-11-23T08:23:45;8.45;;;4.13;;
65896;SDS011;52677;50.898;10.854;2022-11-23T08:25:45;5.28;;;3.38;;
65896;SDS011;52677;50.898;10.854;2022-11-23T08:27:46;5.35;;;2.95;;
65896;SDS011;52677;50.898;10.854;2022-11-23T08:29:46;7.68;;;3.63;;
65896;SDS011;52677;50.898;10.854;2022-11-23T08:31:47;5.90;;;2.97;;
65896;SDS011;52677;50.898;10.854;2022-11-23T08:33:47;3.63;;;3.08;;
65896;SDS011;52677;50.898;10.854;2022-11-23T08:35:47;6.57;;;3.20;;
65896;SDS011;52677;50.898;10.854;2022-11-23T08:37:48;6.30;;;2.72;;
65896;SDS011;52677;50.898;10.854;2022-11-23T08:39:48;13.30;;;2.85;;
65896;SDS011;52677;50.898;10.854;2022-11-23T08:41:49;6.10;;;2.40;;
65896;SDS011;52677;50.898;10.854;2022-11-23T08:43:49;3.63;;;2.60;;
65896;SDS011;52677;50.898;10.854;2022-11-23T08:45:53;4.68;;;2.35;;
65896;SDS011;52677;50.898;10.854;2022-11-23T08:47:57;5.70;;;2.38;;
65896;SDS011;52677;50.898;10.854;2022-11-23T08:50:01;6.18;;;2.67;;
65896;SDS011;52677;50.898;10.854;2022-11-23T08:52:02;5.50;;;2.42;;
65896;SDS011;52677;50.898;10.854;2022-11-23T08:54:02;3.45;;;2.17;;
65896;SDS011;52677;50.898;10.854;2022-11-23T08:56:04;3.72;;;1.90;;
65896;SDS011;52677;50.898;10.854;2022-11-23T08:58:05;3.42;;;2.15;;
65896;SDS011;52677;50.898;10.854;2022-11-23T09:00:06;3.28;;;2.25;;
65896;SDS011;52677;50.898;10.854;2022-11-23T09:02:09;4.22;;;2.10;;
65896;SDS011;52677;50.898;10.854;2022-11-23T09:04:11;7.53;;;2.35;;
65896;SDS011;52677;50.898;10.854;2022-11-23T09:06:11;4.57;;;2.08;;
65896;SDS011;52677;50.898;10.854;2022-11-23T09:08:12;3.88;;;2.20;;
65896;SDS011;52677;50.898;10.854;2022-11-23T09:10:14;5.03;;;2.03;;
65896;SDS011;52677;50.898;10.854;2022-11-23T09:12:14;7.93;;;2.35;;
65896;SDS011;52677;50.898;10.854;2022-11-23T09:14:15;4.65;;;2.05;;
65896;SDS011;52677;50.898;10.854;2022-11-23T09:16:16;4.65;;;2.42;;
65896;SDS011;52677;50.898;10.854;2022-11-23T09:18:16;4.50;;;2.28;;
65896;SDS011;52677;50.898;10.854;2022-11-23T09:20:17;4.28;;;2.05;;
65896;SDS011;52677;50.898;10.854;2022-11-23T09:22:17;3.30;;;1.90;;
65896;SDS011;52677;50.898;10.854;2022-11-23T09:24:18;7.65;;;2.20;;
65896;SDS011;52677;50.898;10.854;2022-11-23T09:26:18;6.47;;;2.53;;
65896;SDS011;52677;50.898;10.854;2022-11-23T09:28:19;7.57;;;2.97;;
65896;SDS011;52677;50.898;10.854;2022-11-23T09:30:19;6.13;;;1.92;;
65896;SDS011;52677;50.898;10.854;2022-11-23T09:32:20;4.97;;;2.00;;
65896;SDS011;52677;50.898;10.854;2022-11-23T09:34:20;6.63;;;1.92;;
65896;SDS011;52677;50.898;10.854;2022-11-23T09:36:20;4.53;;;1.92;;
65896;SDS011;52677;50.898;10.854;2022-11-23T09:38:21;4.55;;;2.05;;
65896;SDS011;52677;50.898;10.854;2022-11-23T09:40:22;5.35;;;1.80;;
65896;SDS011;52677;50.898;10.854;2022-11-23T09:52:15;5.78;;;2.00;;
65896;SDS011;52677;50.898;10.854;2022-11-23T09:54:26;4.22;;;1.80;;
65896;SDS011;52677;50.898;10.854;2022-11-23T09:56:36;4.32;;;1.80;;
65896;SDS011;52677;50.898;10.854;2022-11-23T09:58:40;8.13;;;4.00;;
65896;SDS011;52677;50.898;10.854;2022-11-23T10:02:46;6.63;;;1.95;;
65896;SDS011;52677;50.898;10.854;2022-11-23T10:04:47;7.15;;;2.90;;
65896;SDS011;52677;50.898;10.854;2022-11-23T10:06:55;5.13;;;2.70;;
65896;SDS011;52677;50.898;10.854;2022-11-23T10:09:20;4.10;;;2.38;;
65896;SDS011;52677;50.898;10.854;2022-11-23T10:16:43;5.10;;;1.90;;
65896;SDS011;52677;50.898;10.854;2022-11-23T10:18:57;9.00;;;2.53;;
65896;SDS011;52677;50.898;10.854;2022-11-23T10:21:28;4.80;;;2.08;;
65896;SDS011;52677;50.898;10.854;2022-11-23T10:23:53;4.50;;;2.17;;
65896;SDS011;52677;50.898;10.854;2022-11-23T10:25:54;3.55;;;2.10;;
65896;SDS011;52677;50.898;10.854;2022-11-23T10:27:57;5.38;;;3.38;;
65896;SDS011;52677;50.898;10.854;2022-11-23T10:30:01;5.50;;;2.38;;
65896;SDS011;52677;50.898;10.854;2022-11-23T10:32:04;6.78;;;2.70;;
65896;SDS011;52677;50.898;10.854;2022-11-23T10:34:12;3.13;;;2.53;;
65896;SDS011;52677;50.898;10.854;2022-11-23T10:36:15;5.20;;;2.65;;
65896;SDS011;52677;50.898;10.854;2022-11-23T10:38:17;5.55;;;2.70;;
65896;SDS011;52677;50.898;10.854;2022-11-23T10:44:41;7.85;;;2.90;;
65896;SDS011;52677;50.898;10.854;2022-11-23T10:46:45;7.38;;;3.00;;
65896;SDS011;52677;50.898;10.854;2022-11-23T10:48:45;8.20;;;4.32;;
65896;SDS011;52677;50.898;10.854;2022-11-23T10:50:46;8.50;;;4.25;;
65896;SDS011;52677;50.898;10.854;2022-11-23T10:52:56;9.68;;;4.28;;
65896;SDS011;52677;50.898;10.854;2022-11-23T10:55:00;5.47;;;2.70;;
65896;SDS011;52677;50.898;10.854;2022-11-23T10:57:24;8.98;;;5.03;;
65896;SDS011;52677;50.898;10.854;2022-11-23T10:59:36;23.20;;;7.93;;
65896;SDS011;52677;50.898;10.854;2022-11-23T11:01:37;12.75;;;4.68;;
65896;SDS011;52677;50.898;10.854;2022-11-23T11:03:38;18.13;;;6.47;;
65896;SDS011;52677;50.898;10.854;2022-11-23T11:05:47;8.60;;;3.90;;
65896;SDS011;52677;50.898;10.854;2022-11-23T11:07:49;5.00;;;2.35;;
65896;SDS011;52677;50.898;10.854;2022-11-23T11:09:59;5.43;;;2.28;;
65896;SDS011;52677;50.898;10.854;2022-11-23T11:12:01;6.45;;;2.88;;
65896;SDS011;52677;50.898;10.854;2022-11-23T11:14:05;10.73;;;4.35;;
65896;SDS011;52677;50.898;10.854;2022-11-23T11:16:26;7.72;;;2.47;;
65896;SDS011;52677;50.898;10.854;2022-11-23T11:18:35;5.65;;;2.53;;
65896;SDS011;52677;50.898;10.854;2022-11-23T11:20:37;5.53;;;2.20;;
65896;SDS011;52677;50.898;10.854;2022-11-23T11:22:38;6.47;;;2.30;;
65896;SDS011;52677;50.898;10.854;2022-11-23T11:24:43;5.80;;;2.20;;
65896;SDS011;52677;50.898;10.854;2022-11-23T11:27:10;4.90;;;2.30;;
65896;SDS011;52677;50.898;10.854;2022-11-23T11:32:12;8.13;;;2.20;;
65896;SDS011;52677;50.898;10.854;2022-11-23T11:34:05;7.65;;;2.40;;
65896;SDS011;52677;50.898;10.854;2022-11-23T11:36:15;7.25;;;2.28;;
65896;SDS011;52677;50.898;10.854;2022-11-23T11:38:22;5.87;;;2.70;;
65896;SDS011;52677;50.898;10.854;2022-11-23T11:42:37;5.40;;;2.13;;
65896;SDS011;52677;50.898;10.854;2022-11-23T11:44:42;8.88;;;3.72;;
65896;SDS011;52677;50.898;10.854;2022-11-23T11:47:32;5.50;;;2.30;;
65896;SDS011;52677;50.898;10.854;2022-11-23T11:49:25;3.60;;;1.92;;
65896;SDS011;52677;50.898;10.854;2022-11-23T11:51:33;8.20;;;2.15;;
65896;SDS011;52677;50.898;10.854;2022-11-23T11:53:42;4.18;;;2.25;;
65896;SDS011;52677;50.898;10.854;2022-11-23T11:55:55;3.70;;;2.15;;
65896;SDS011;52677;50.898;10.854;2022-11-23T11:58:04;5.20;;;2.15;;
65896;SDS011;52677;50.898;10.854;2022-11-23T12:00:14;3.80;;;1.98;;
65896;SDS011;52677;50.898;10.854;2022-11-23T12:04:48;4.30;;;2.15;;
65896;SDS011;52677;50.898;10.854;2022-11-23T12:07:13;4.28;;;2.10;;
65896;SDS011;52677;50.898;10.854;2022-11-23T12:09:25;5.38;;;2.40;;
65896;SDS011;52677;50.898;10.854;2022-11-23T12:11:30;6.38;;;2.40;;
65896;SDS011;52677;50.898;10.854;2022-11-23T12:13:35;4.35;;;2.25;;
65896;SDS011;52677;50.898;10.854;2022-11-23T12:15:41;6.05;;;2.45;;
65896;SDS011;52677;50.898;10.854;2022-11-23T12:19:49;4.40;;;2.58;;
65896;SDS011;52677;50.898;10.854;2022-11-23T12:29:06;4.93;;;2.53;;
65896;SDS011;52677;50.898;10.854;2022-11-23T12:38:29;6.00;;;2.55;;
65896;SDS011;52677;50.898;10.854;2022-11-23T12:40:39;6.35;;;2.92;;
65896;SDS011;52677;50.898;10.854;2022-11-23T12:42:50;5.75;;;3.05;;
65896;SDS011;52677;50.898;10.854;2022-11-23T12:45:10;4.93;;;2.53;;
65896;SDS011;52677;50.898;10.854;2022-11-23T12:56:05;5.55;;;3.25;;
65896;SDS011;52677;50.898;10.854;2022-11-23T12:58:20;8.45;;;4.45;;
65896;SDS011;52677;50.898;10.854;2022-11-23T13:00:26;8.90;;;4.82;;
65896;SDS011;52677;50.898;10.854;2022-11-23T13:07:35;3.72;;;2.60;;
65896;SDS011;52677;50.898;10.854;2022-11-23T13:16:38;9.32;;;3.08;;
65896;SDS011;52677;50.898;10.854;2022-11-23T13:23:45;7.47;;;2.92;;
65896;SDS011;52677;50.898;10.854;2022-11-23T13:26:04;4.15;;;2.20;;